createdAt,value
2018-07-15T00:00:31.057Z,96.66
2018-07-15T00:01:32.427Z,96.94
2018-07-15T00:02:33.821Z,96.84
2018-07-15T00:03:35.205Z,96.94
2018-07-15T00:04:36.586Z,96.84
2018-07-15T00:05:37.975Z,97.52
2018-07-15T00:06:39.367Z,97.33
2018-07-15T00:07:40.748Z,97.28
2018-07-15T00:08:42.138Z,97.18
2018-07-15T00:09:43.531Z,97.18
2018-07-15T00:10:44.913Z,96.89
2018-07-15T00:11:46.310Z,97.08
2018-07-15T00:12:47.693Z,96.51
2018-07-15T00:13:49.078Z,96.13
2018-07-15T00:14:50.467Z,96.18
2018-07-15T00:15:51.856Z,95.46
2018-07-15T00:16:53.239Z,95.46
2018-07-15T00:17:54.628Z,95.46
2018-07-15T00:18:56.011Z,95.36
2018-07-15T00:19:57.387Z,95.56
2018-07-15T00:20:58.766Z,95.94
2018-07-15T00:22:00.158Z,96.22
2018-07-15T00:23:01.535Z,96.03
2018-07-15T00:24:02.962Z,95.75
2018-07-15T00:25:04.327Z,95.65
2018-07-15T00:26:05.709Z,96.03
2018-07-15T00:27:07.094Z,96.32
2018-07-15T00:28:08.477Z,96.32
2018-07-15T00:29:09.863Z,96.80
2018-07-15T00:30:11.248Z,96.61
2018-07-15T00:31:12.627Z,96.80
2018-07-15T00:32:14.054Z,96.61
2018-07-15T00:33:15.398Z,97.08
2018-07-15T00:34:16.777Z,97.18
2018-07-15T00:35:18.161Z,96.61
2018-07-15T00:36:19.553Z,96.70
2018-07-15T00:37:20.942Z,96.70
2018-07-15T00:38:22.321Z,96.56
2018-07-15T00:39:23.707Z,96.84
2018-07-15T00:40:25.088Z,96.75
2018-07-15T00:41:26.478Z,97.23
2018-07-15T00:42:27.866Z,97.61
2018-07-15T00:43:29.244Z,97.52
2018-07-15T00:44:30.630Z,97.61
2018-07-15T00:45:32.022Z,97.90
2018-07-15T00:46:33.394Z,98.28
2018-07-15T00:47:34.784Z,98.28
2018-07-15T00:48:36.162Z,98.66
2018-07-15T00:49:37.541Z,98.09
2018-07-15T00:50:38.927Z,98.75
2018-07-15T00:51:40.313Z,98.75
2018-07-15T00:52:41.707Z,98.66
2018-07-15T00:53:43.097Z,98.47
2018-07-15T00:54:44.473Z,98.75
2018-07-15T00:55:45.864Z,98.57
2018-07-15T00:56:47.255Z,98.57
2018-07-15T00:57:48.632Z,98.47
2018-07-15T00:58:50.015Z,98.95
2018-07-15T00:59:51.402Z,98.57
2018-07-15T01:00:52.780Z,98.66
2018-07-15T01:01:54.174Z,98.75
2018-07-15T01:02:55.557Z,98.57
2018-07-15T01:03:56.937Z,98.66
2018-07-15T01:04:58.328Z,98.38
2018-07-15T01:05:59.718Z,98.75
2018-07-15T01:07:01.092Z,98.75
2018-07-15T01:08:02.484Z,98.57
2018-07-15T01:09:03.870Z,98.66
2018-07-15T01:10:05.253Z,98.47
2018-07-15T01:11:06.632Z,98.85
2018-07-15T01:12:08.032Z,98.28
2018-07-15T01:13:10.052Z,97.99
2018-07-15T01:14:11.448Z,98.47
2018-07-15T01:15:12.833Z,98.66
2018-07-15T01:16:14.217Z,98.95
2018-07-15T01:17:15.597Z,99.04
2018-07-15T01:18:16.976Z,99.33
2018-07-15T01:19:18.369Z,99.81
2018-07-15T01:20:19.737Z,99.43
2018-07-15T01:21:21.120Z,99.28
2018-07-15T01:22:22.503Z,99.33
2018-07-15T01:23:23.901Z,98.75
2018-07-15T01:24:25.284Z,98.95
2018-07-15T01:25:26.675Z,99.33
2018-07-15T01:26:28.063Z,99.19
2018-07-15T01:27:29.456Z,98.95
2018-07-15T01:28:30.839Z,99.04
2018-07-15T01:29:32.232Z,98.99
2018-07-15T01:30:33.602Z,98.80
2018-07-15T01:31:34.990Z,99.71
2018-07-15T01:32:36.378Z,99.09
2018-07-15T01:33:37.760Z,99.19
2018-07-15T01:34:39.144Z,99.33
2018-07-15T01:35:40.537Z,99.28
2018-07-15T01:36:41.912Z,99.28
2018-07-15T01:37:43.296Z,98.90
2018-07-15T01:38:44.683Z,99.19
2018-07-15T01:39:46.064Z,99.38
2018-07-15T01:40:48.367Z,98.99
2018-07-15T01:41:49.746Z,99.09
2018-07-15T01:42:51.127Z,98.80
2018-07-15T01:43:52.507Z,99.19
2018-07-15T01:44:53.891Z,99.09
2018-07-15T01:45:55.275Z,99.28
2018-07-15T01:46:56.665Z,99.99
2018-07-15T01:47:58.049Z,99.99
2018-07-15T01:48:59.433Z,99.99
2018-07-15T01:50:00.816Z,99.99
2018-07-15T01:51:02.199Z,99.95
2018-07-15T01:52:03.583Z,99.99
2018-07-15T01:53:04.971Z,99.99
2018-07-15T01:54:06.358Z,99.66
2018-07-15T01:55:07.744Z,99.99
2018-07-15T01:56:09.140Z,99.57
2018-07-15T01:57:10.519Z,99.99
2018-07-15T01:58:11.914Z,99.66
2018-07-15T01:59:13.298Z,99.76
2018-07-15T02:00:14.680Z,99.90
2018-07-15T02:01:16.068Z,99.99
2018-07-15T02:02:17.450Z,99.99
2018-07-15T02:03:18.835Z,99.99
2018-07-15T02:04:20.218Z,99.99
2018-07-15T02:05:21.604Z,99.99
2018-07-15T02:06:22.978Z,99.99
2018-07-15T02:07:24.367Z,99.99
2018-07-15T02:08:25.750Z,99.99
2018-07-15T02:09:27.138Z,99.99
2018-07-15T02:10:28.510Z,99.52
2018-07-15T02:11:29.897Z,99.99
2018-07-15T02:12:31.291Z,99.99
2018-07-15T02:13:32.673Z,99.99
2018-07-15T02:14:34.073Z,99.99
2018-07-15T02:15:35.467Z,99.99
2018-07-15T02:16:36.835Z,99.99
2018-07-15T02:17:38.223Z,99.99
2018-07-15T02:18:39.597Z,99.99
2018-07-15T02:19:40.979Z,99.99
2018-07-15T02:20:42.362Z,99.99
2018-07-15T02:21:43.754Z,99.99
2018-07-15T02:22:45.144Z,99.99
2018-07-15T02:23:46.518Z,99.99
2018-07-15T02:24:48.572Z,99.99
2018-07-15T02:25:49.951Z,99.99
2018-07-15T02:26:51.330Z,99.99
2018-07-15T02:27:52.728Z,99.99
2018-07-15T02:28:54.100Z,99.99
2018-07-15T02:29:55.486Z,99.99
2018-07-15T02:30:56.858Z,99.99
2018-07-15T02:31:58.248Z,99.99
2018-07-15T02:32:59.626Z,99.99
2018-07-15T02:34:01.024Z,99.99
2018-07-15T02:35:02.409Z,99.99
2018-07-15T02:36:03.787Z,99.99
2018-07-15T02:37:05.180Z,99.99
2018-07-15T02:38:06.621Z,99.99
2018-07-15T02:39:07.953Z,99.99
2018-07-15T02:40:09.335Z,99.99
2018-07-15T02:41:10.715Z,99.99
2018-07-15T02:42:12.095Z,99.99
2018-07-15T02:43:13.481Z,99.99
2018-07-15T02:44:14.868Z,99.99
2018-07-15T02:45:16.253Z,99.99
2018-07-15T02:46:17.633Z,99.99
2018-07-15T02:47:19.021Z,99.99
2018-07-15T02:48:20.471Z,99.99
2018-07-15T02:49:21.747Z,99.99
2018-07-15T02:50:23.130Z,99.99
2018-07-15T02:51:24.518Z,99.99
2018-07-15T02:52:25.901Z,99.99
2018-07-15T02:53:27.284Z,99.99
2018-07-15T02:54:28.666Z,99.99
2018-07-15T02:55:30.046Z,99.99
2018-07-15T02:56:31.432Z,99.99
2018-07-15T02:57:32.818Z,99.99
2018-07-15T02:58:34.204Z,99.99
2018-07-15T02:59:35.593Z,99.99
2018-07-15T03:00:36.980Z,99.99
2018-07-15T03:01:38.360Z,99.99
2018-07-15T03:02:39.754Z,99.99
2018-07-15T03:03:41.134Z,99.99
2018-07-15T03:04:42.514Z,99.99
2018-07-15T03:05:43.902Z,99.99
2018-07-15T03:06:45.294Z,99.99
2018-07-15T03:07:46.669Z,99.99
2018-07-15T03:08:48.076Z,99.99
2018-07-15T03:09:49.450Z,99.99
2018-07-15T03:10:50.825Z,99.99
2018-07-15T03:11:52.210Z,99.99
2018-07-15T03:12:53.587Z,99.99
2018-07-15T03:13:54.975Z,99.99
2018-07-15T03:14:57.051Z,99.99
2018-07-15T03:15:58.441Z,99.99
2018-07-15T03:16:59.825Z,99.99
2018-07-15T03:18:01.206Z,99.99
2018-07-15T03:19:02.586Z,99.99
2018-07-15T03:20:03.972Z,99.99
2018-07-15T03:21:05.442Z,99.99
2018-07-15T03:22:06.708Z,99.99
2018-07-15T03:23:08.090Z,99.99
2018-07-15T03:24:09.488Z,99.99
2018-07-15T03:25:10.876Z,99.99
2018-07-15T03:26:12.264Z,99.99
2018-07-15T03:27:13.650Z,99.99
2018-07-15T03:28:15.028Z,99.99
2018-07-15T03:29:16.420Z,99.99
2018-07-15T03:30:17.790Z,99.99
2018-07-15T03:31:19.180Z,99.99
2018-07-15T03:32:20.564Z,99.99
2018-07-15T03:33:21.948Z,99.99
2018-07-15T03:34:23.332Z,99.99
2018-07-15T03:35:25.579Z,99.99
2018-07-15T03:36:26.983Z,99.99
2018-07-15T03:37:28.355Z,99.99
2018-07-15T03:38:29.747Z,99.99
2018-07-15T03:39:31.135Z,99.99
2018-07-15T03:40:32.514Z,99.99
2018-07-15T03:41:33.933Z,99.99
2018-07-15T03:42:35.321Z,99.99
2018-07-15T03:43:37.323Z,99.99
2018-07-15T03:44:38.711Z,99.99
2018-07-15T03:45:40.086Z,99.99
2018-07-15T03:46:41.483Z,99.99
2018-07-15T03:47:42.864Z,99.99
2018-07-15T03:48:44.263Z,99.99
2018-07-15T03:49:45.644Z,99.99
2018-07-15T03:50:47.025Z,99.99
2018-07-15T03:51:48.414Z,99.99
2018-07-15T03:52:49.794Z,99.99
2018-07-15T03:53:51.188Z,99.99
2018-07-15T03:54:52.574Z,99.99
2018-07-15T03:55:53.960Z,99.99
2018-07-15T03:56:55.352Z,99.99
2018-07-15T03:57:56.746Z,99.99
2018-07-15T03:58:58.128Z,99.99
2018-07-15T03:59:59.520Z,99.99
2018-07-15T04:01:00.904Z,99.99
2018-07-15T04:02:02.308Z,99.99
2018-07-15T04:03:03.709Z,99.99
2018-07-15T04:04:05.093Z,99.14
2018-07-15T04:05:06.489Z,99.52
2018-07-15T04:06:07.863Z,99.33
2018-07-15T04:07:10.183Z,99.99
2018-07-15T04:08:11.567Z,99.99
2018-07-15T04:09:12.959Z,99.99
2018-07-15T04:10:14.350Z,99.99
2018-07-15T04:11:15.742Z,99.99
2018-07-15T04:12:17.119Z,99.99
2018-07-15T04:13:18.519Z,99.99
2018-07-15T04:14:19.904Z,99.99
2018-07-15T04:15:21.291Z,99.99
2018-07-15T04:16:22.675Z,99.99
2018-07-15T04:17:24.066Z,99.99
2018-07-15T04:18:25.456Z,99.99
2018-07-15T04:19:26.851Z,99.99
2018-07-15T04:20:28.232Z,99.99
2018-07-15T04:21:29.628Z,99.99
2018-07-15T04:22:31.016Z,99.99
2018-07-15T04:23:32.413Z,99.15
2018-07-15T04:24:33.790Z,99.05
2018-07-15T04:25:35.180Z,98.38
2018-07-15T04:26:36.552Z,98.38
2018-07-15T04:27:37.952Z,96.94
2018-07-15T04:28:39.343Z,96.75
2018-07-15T04:29:40.727Z,96.56
2018-07-15T04:30:42.110Z,96.66
2018-07-15T04:31:43.939Z,96.66
2018-07-15T04:32:45.332Z,96.32
2018-07-15T04:33:46.718Z,95.65
2018-07-15T04:34:48.116Z,95.75
2018-07-15T04:35:49.503Z,95.36
2018-07-15T04:36:50.897Z,96.32
2018-07-15T04:37:52.292Z,97.28
2018-07-15T04:38:53.675Z,97.85
2018-07-15T04:39:55.118Z,98.33
2018-07-15T04:40:56.450Z,99.05
2018-07-15T04:41:57.841Z,98.96
2018-07-15T04:42:59.885Z,98.86
2018-07-15T04:44:01.276Z,98.38
2018-07-15T04:45:02.664Z,98.10
2018-07-15T04:46:04.060Z,97.80
2018-07-15T04:47:05.442Z,97.61
2018-07-15T04:48:06.838Z,97.23
2018-07-15T04:49:08.228Z,97.42
2018-07-15T04:50:09.614Z,97.04
2018-07-15T04:51:11.002Z,97.95
2018-07-15T04:52:12.410Z,97.66
2018-07-15T04:53:13.790Z,97.38
2018-07-15T04:54:15.186Z,97.47
2018-07-15T04:55:16.576Z,97.47
2018-07-15T04:56:17.967Z,97.09
2018-07-15T04:57:19.352Z,96.18
2018-07-15T04:58:20.744Z,95.79
2018-07-15T04:59:22.120Z,95.12
2018-07-15T05:00:23.516Z,94.54
2018-07-15T05:01:24.906Z,94.54
2018-07-15T05:02:26.301Z,94.35
2018-07-15T05:03:27.707Z,94.07
2018-07-15T05:04:29.099Z,93.59
2018-07-15T05:05:30.487Z,93.73
2018-07-15T05:06:31.881Z,93.73
2018-07-15T05:07:33.272Z,93.73
2018-07-15T05:08:34.661Z,94.12
2018-07-15T05:09:36.061Z,93.54
2018-07-15T05:10:37.446Z,93.35
2018-07-15T05:11:38.852Z,93.54
2018-07-15T05:12:40.233Z,93.15
2018-07-15T05:13:41.629Z,92.63
2018-07-15T05:14:43.018Z,93.01
2018-07-15T05:15:44.408Z,91.96
2018-07-15T05:16:45.799Z,92.14
2018-07-15T05:17:47.197Z,91.57
2018-07-15T05:18:48.590Z,91.47
2018-07-15T05:19:49.988Z,91.23
2018-07-15T05:20:51.378Z,91.33
2018-07-15T05:21:52.778Z,91.04
2018-07-15T05:22:54.167Z,91.23
2018-07-15T05:23:55.548Z,90.94
2018-07-15T05:24:56.962Z,90.75
2018-07-15T05:25:58.335Z,90.84
2018-07-15T05:26:59.732Z,90.84
2018-07-15T05:28:01.128Z,90.75
2018-07-15T05:29:02.512Z,90.37
2018-07-15T05:30:03.909Z,90.70
2018-07-15T05:31:05.299Z,90.51
2018-07-15T05:32:06.685Z,88.87
2018-07-15T05:33:08.078Z,88.87
2018-07-15T05:34:09.487Z,88.10
2018-07-15T05:35:10.881Z,88.24
2018-07-15T05:36:12.274Z,87.48
2018-07-15T05:37:13.673Z,87.67
2018-07-15T05:38:15.071Z,87.76
2018-07-15T05:39:16.455Z,87.86
2018-07-15T05:40:17.856Z,86.42
2018-07-15T05:41:19.238Z,86.94
2018-07-15T05:42:20.636Z,86.32
2018-07-15T05:43:22.038Z,86.27
2018-07-15T05:44:23.474Z,86.08
2018-07-15T05:45:24.821Z,85.69
2018-07-15T05:46:26.215Z,86.08
2018-07-15T05:47:27.610Z,85.60
2018-07-15T05:48:29.000Z,85.78
2018-07-15T05:49:30.406Z,85.88
2018-07-15T05:50:31.792Z,86.36
2018-07-15T05:51:33.196Z,85.88
2018-07-15T05:52:34.585Z,85.98
2018-07-15T05:53:35.989Z,85.88
2018-07-15T05:54:37.377Z,86.65
2018-07-15T05:55:38.777Z,87.13
2018-07-15T05:56:40.159Z,86.36
2018-07-15T05:57:41.559Z,86.46
2018-07-15T05:58:42.953Z,86.02
2018-07-15T05:59:44.407Z,84.97
2018-07-15T06:00:45.734Z,84.77
2018-07-15T06:01:47.137Z,83.75
2018-07-15T06:02:48.539Z,82.41
2018-07-15T06:03:49.927Z,82.89
2018-07-15T06:04:51.318Z,82.70
2018-07-15T06:05:52.712Z,83.18
2018-07-15T06:06:54.107Z,82.06
2018-07-15T06:07:55.509Z,80.37
2018-07-15T06:08:56.906Z,80.27
2018-07-15T06:09:58.298Z,79.60
2018-07-15T06:10:59.696Z,80.52
2018-07-15T06:12:01.097Z,81.58
2018-07-15T06:13:02.484Z,81.96
2018-07-15T06:14:03.871Z,80.18
2018-07-15T06:15:05.283Z,79.16
2018-07-15T06:16:06.690Z,79.06
2018-07-15T06:17:08.133Z,78.96
2018-07-15T06:18:09.457Z,77.61
2018-07-15T06:19:10.849Z,77.03
2018-07-15T06:20:12.257Z,78.00
2018-07-15T06:21:13.649Z,78.19
2018-07-15T06:22:15.043Z,79.31
2018-07-15T06:23:16.431Z,79.31
2018-07-15T06:24:17.834Z,79.89
2018-07-15T06:25:19.245Z,79.89
2018-07-15T06:26:20.649Z,80.46
2018-07-15T06:27:22.035Z,80.62
2018-07-15T06:28:23.422Z,81.01
2018-07-15T06:29:24.821Z,81.39
2018-07-15T06:30:26.204Z,81.24
2018-07-15T06:31:27.614Z,80.08
2018-07-15T06:32:29.009Z,80.56
2018-07-15T06:33:30.403Z,80.46
2018-07-15T06:34:31.807Z,81.04
2018-07-15T06:35:33.204Z,81.24
2018-07-15T06:36:34.598Z,80.46
2018-07-15T06:37:35.997Z,80.62
2018-07-15T06:38:37.388Z,80.33
2018-07-15T06:39:38.800Z,81.58
2018-07-15T06:40:40.200Z,81.77
2018-07-15T06:41:41.593Z,81.68
2018-07-15T06:42:42.992Z,82.26
2018-07-15T06:43:44.384Z,82.45
2018-07-15T06:44:45.773Z,81.58
2018-07-15T06:45:47.186Z,81.48
2018-07-15T06:46:48.570Z,81.06
2018-07-15T06:47:49.975Z,80.87
2018-07-15T06:48:51.372Z,80.77
2018-07-15T06:49:52.767Z,82.17
2018-07-15T06:50:54.164Z,82.56
2018-07-15T06:51:55.546Z,83.52
2018-07-15T06:52:56.944Z,83.23
2018-07-15T06:53:58.352Z,83.14
2018-07-15T06:54:59.730Z,83.52
2018-07-15T06:56:01.161Z,83.66
2018-07-15T06:57:02.525Z,82.41
2018-07-15T06:58:03.934Z,82.98
2018-07-15T06:59:05.323Z,82.35
2018-07-15T07:00:06.721Z,83.03
2018-07-15T07:01:08.107Z,81.48
2018-07-15T07:02:09.503Z,80.23
2018-07-15T07:03:10.900Z,80.85
2018-07-15T07:04:12.299Z,79.60
2018-07-15T07:05:13.695Z,80.51
2018-07-15T07:06:15.108Z,79.06
2018-07-15T07:07:16.528Z,79.35
2018-07-15T07:08:17.848Z,77.17
2018-07-15T07:09:19.242Z,76.68
2018-07-15T07:10:20.646Z,75.43
2018-07-15T07:11:22.038Z,76.01
2018-07-15T07:12:23.435Z,77.36
2018-07-15T07:13:24.833Z,76.82
2018-07-15T07:14:26.234Z,75.67
2018-07-15T07:15:27.629Z,75.18
2018-07-15T07:16:29.031Z,74.41
2018-07-15T07:17:30.418Z,74.69
2018-07-15T07:18:31.821Z,73.54
2018-07-15T07:19:33.204Z,73.99
2018-07-15T07:20:34.678Z,73.31
2018-07-15T07:21:35.989Z,74.52
2018-07-15T07:22:37.389Z,74.33
2018-07-15T07:23:38.800Z,74.05
2018-07-15T07:24:40.201Z,74.33
2018-07-15T07:25:41.607Z,74.57
2018-07-15T07:26:42.995Z,74.05
2018-07-15T07:27:44.379Z,73.99
2018-07-15T07:28:45.827Z,73.15
2018-07-15T07:29:47.184Z,73.25
2018-07-15T07:30:48.588Z,73.44
2018-07-15T07:31:49.976Z,73.63
2018-07-15T07:32:51.376Z,73.06
2018-07-15T07:33:52.776Z,73.15
2018-07-15T07:34:54.177Z,72.86
2018-07-15T07:35:55.575Z,73.02
2018-07-15T07:36:56.979Z,73.02
2018-07-15T07:37:58.366Z,73.60
2018-07-15T07:38:59.778Z,73.60
2018-07-15T07:40:01.173Z,73.31
2018-07-15T07:41:02.585Z,72.92
2018-07-15T07:42:03.989Z,72.44
2018-07-15T07:43:05.390Z,72.41
2018-07-15T07:44:06.780Z,72.60
2018-07-15T07:45:08.170Z,72.69
2018-07-15T07:46:09.563Z,73.08
2018-07-15T07:47:10.965Z,74.40
2018-07-15T07:48:12.369Z,74.62
2018-07-15T07:49:13.771Z,75.20
2018-07-15T07:50:15.161Z,74.08
2018-07-15T07:51:16.569Z,73.99
2018-07-15T07:52:17.965Z,73.31
2018-07-15T07:53:19.415Z,71.67
2018-07-15T07:54:20.776Z,72.25
2018-07-15T07:55:22.162Z,73.41
2018-07-15T07:56:23.561Z,72.63
2018-07-15T07:57:24.959Z,72.15
2018-07-15T07:58:26.365Z,72.25
2018-07-15T07:59:27.752Z,72.44
2018-07-15T08:00:29.158Z,72.99
2018-07-15T08:01:30.542Z,72.12
2018-07-15T08:02:31.951Z,73.18
2018-07-15T08:03:33.351Z,73.18
2018-07-15T08:04:34.740Z,73.37
2018-07-15T08:05:36.130Z,73.66
2018-07-15T08:06:37.530Z,74.14
2018-07-15T08:07:38.933Z,74.33
2018-07-15T08:08:40.308Z,73.85
2018-07-15T08:09:41.708Z,73.89
2018-07-15T08:10:43.104Z,73.99
2018-07-15T08:11:44.500Z,73.11
2018-07-15T08:12:45.907Z,71.22
2018-07-15T08:13:47.307Z,71.32
2018-07-15T08:14:48.707Z,71.03
2018-07-15T08:15:50.089Z,71.42
2018-07-15T08:16:51.486Z,72.09
2018-07-15T08:17:52.880Z,71.36
2018-07-15T08:18:54.288Z,70.68
2018-07-15T08:19:55.688Z,71.16
2018-07-15T08:20:57.089Z,68.75
2018-07-15T08:21:58.496Z,68.59
2018-07-15T08:22:59.889Z,69.07
2018-07-15T08:24:01.288Z,68.40
2018-07-15T08:25:02.688Z,69.26
2018-07-15T08:26:04.083Z,68.30
2018-07-15T08:27:05.484Z,68.10
2018-07-15T08:28:06.935Z,68.10
2018-07-15T08:29:08.274Z,68.88
2018-07-15T08:30:09.666Z,68.20
2018-07-15T08:31:11.062Z,68.46
2018-07-15T08:32:12.456Z,69.07
2018-07-15T08:33:13.863Z,67.82
2018-07-15T08:34:15.264Z,70.14
2018-07-15T08:35:16.662Z,67.62
2018-07-15T08:36:18.160Z,66.59
2018-07-15T08:37:19.690Z,65.72
2018-07-15T08:38:21.082Z,65.82
2018-07-15T08:39:22.486Z,66.20
2018-07-15T08:40:23.877Z,65.47
2018-07-15T08:41:25.283Z,65.17
2018-07-15T08:42:26.679Z,65.56
2018-07-15T08:43:28.075Z,64.40
2018-07-15T08:44:29.473Z,64.01
2018-07-15T08:45:30.872Z,64.69
2018-07-15T08:46:32.286Z,64.79
2018-07-15T08:47:33.657Z,63.79
2018-07-15T08:48:35.057Z,63.98
2018-07-15T08:49:36.461Z,65.62
2018-07-15T08:50:37.868Z,65.82
2018-07-15T08:51:39.263Z,66.88
2018-07-15T08:52:40.678Z,65.53
2018-07-15T08:53:42.073Z,65.88
2018-07-15T08:54:43.540Z,66.17
2018-07-15T08:55:44.874Z,65.88
2018-07-15T08:56:46.288Z,65.01
2018-07-15T08:57:47.688Z,64.43
2018-07-15T08:58:49.111Z,63.85
2018-07-15T08:59:50.522Z,63.95
2018-07-15T09:00:51.949Z,65.30
2018-07-15T09:01:53.341Z,65.01
2018-07-15T09:02:54.740Z,63.92
2018-07-15T09:03:56.153Z,64.98
2018-07-15T09:04:57.596Z,65.37
2018-07-15T09:05:58.992Z,65.85
2018-07-15T09:07:00.406Z,67.01
2018-07-15T09:08:01.823Z,66.94
2018-07-15T09:09:03.251Z,65.59
2018-07-15T09:10:04.662Z,65.20
2018-07-15T09:11:06.082Z,66.01
2018-07-15T09:12:07.491Z,65.05
2018-07-15T09:13:08.881Z,63.89
2018-07-15T09:14:10.271Z,63.53
2018-07-15T09:15:11.677Z,63.53
2018-07-15T09:16:13.101Z,62.95
2018-07-15T09:17:14.523Z,62.34
2018-07-15T09:18:15.940Z,63.21
2018-07-15T09:19:17.350Z,63.31
2018-07-15T09:20:18.757Z,62.15
2018-07-15T09:21:20.152Z,63.40
2018-07-15T09:22:21.586Z,63.11
2018-07-15T09:23:22.974Z,61.92
2018-07-15T09:24:24.395Z,62.70
2018-07-15T09:25:25.804Z,63.28
2018-07-15T09:26:27.190Z,64.31
2018-07-15T09:27:28.593Z,64.69
2018-07-15T09:28:29.973Z,64.40
2018-07-15T09:29:31.406Z,65.40
2018-07-15T09:30:33.724Z,64.92
2018-07-15T09:31:35.105Z,65.50
2018-07-15T09:32:36.509Z,66.17
2018-07-15T09:33:37.905Z,66.69
2018-07-15T09:34:39.871Z,64.66
2018-07-15T09:35:40.696Z,63.50
2018-07-15T09:36:42.049Z,62.76
2018-07-15T09:37:43.453Z,61.60
2018-07-15T09:38:44.853Z,61.30
2018-07-15T09:39:46.265Z,61.89
2018-07-15T09:40:47.665Z,61.69
2018-07-15T09:41:49.123Z,61.79
2018-07-15T09:42:50.480Z,61.21
2018-07-15T09:43:51.889Z,60.92
2018-07-15T09:44:53.309Z,61.11
2018-07-15T09:45:54.717Z,62.08
2018-07-15T09:46:56.099Z,61.92
2018-07-15T09:47:57.551Z,61.43
2018-07-15T09:48:58.969Z,61.92
2018-07-15T09:50:00.415Z,60.98
2018-07-15T09:51:01.817Z,59.53
2018-07-15T09:52:03.215Z,60.04
2018-07-15T09:53:04.613Z,58.88
2018-07-15T09:54:06.030Z,57.59
2018-07-15T09:55:07.448Z,57.11
2018-07-15T09:56:08.838Z,58.24
2018-07-15T09:57:10.255Z,58.24
2018-07-15T09:58:11.685Z,58.63
2018-07-15T09:59:13.079Z,58.12
2018-07-15T10:00:14.490Z,58.40
2018-07-15T10:01:15.900Z,57.34
2018-07-15T10:02:17.301Z,57.54
2018-07-15T10:03:18.709Z,58.18
2018-07-15T10:04:20.125Z,59.15
2018-07-15T10:05:21.543Z,59.73
2018-07-15T10:06:22.948Z,59.73
2018-07-15T10:07:24.353Z,60.41
2018-07-15T10:08:25.938Z,62.53
2018-07-15T10:09:27.290Z,61.40
2018-07-15T10:10:28.720Z,62.27
2018-07-15T10:11:30.099Z,61.72
2018-07-15T10:12:31.498Z,60.95
2018-07-15T10:13:32.897Z,61.36
2018-07-15T10:14:34.264Z,60.40
2018-07-15T10:15:35.662Z,59.33
2018-07-15T10:16:37.058Z,59.36
2018-07-15T10:17:38.458Z,58.01
2018-07-15T10:18:39.847Z,56.94
2018-07-15T10:19:41.254Z,57.04
2018-07-15T10:20:42.650Z,56.85
2018-07-15T10:21:44.048Z,57.04
2018-07-15T10:22:45.448Z,57.53
2018-07-15T10:23:46.841Z,57.53
2018-07-15T10:24:48.240Z,57.50
2018-07-15T10:25:49.646Z,57.69
2018-07-15T10:26:51.035Z,57.79
2018-07-15T10:27:52.437Z,57.40
2018-07-15T10:28:53.832Z,57.59
2018-07-15T10:29:55.232Z,58.27
2018-07-15T10:30:56.634Z,59.05
2018-07-15T10:31:58.035Z,59.23
2018-07-15T10:32:59.434Z,58.85
2018-07-15T10:34:00.827Z,58.95
2018-07-15T10:35:02.235Z,59.84
2018-07-15T10:36:03.630Z,58.30
2018-07-15T10:37:05.035Z,57.71
2018-07-15T10:38:06.427Z,56.75
2018-07-15T10:39:07.843Z,56.20
2018-07-15T10:40:09.216Z,55.71
2018-07-15T10:41:10.608Z,56.39
2018-07-15T10:42:12.002Z,55.71
2018-07-15T10:43:13.420Z,57.09
2018-07-15T10:44:14.811Z,56.32
2018-07-15T10:45:16.209Z,55.64
2018-07-15T10:46:17.600Z,55.13
2018-07-15T10:47:18.999Z,55.81
2018-07-15T10:48:20.402Z,55.52
2018-07-15T10:49:21.802Z,55.71
2018-07-15T10:50:23.195Z,56.20
2018-07-15T10:51:24.593Z,55.98
2018-07-15T10:52:25.988Z,56.07
2018-07-15T10:53:27.389Z,55.88
2018-07-15T10:54:28.796Z,56.26
2018-07-15T10:55:30.217Z,57.04
2018-07-15T10:56:31.592Z,57.71
2018-07-15T10:57:32.999Z,56.94
2018-07-15T10:58:34.410Z,56.72
2018-07-15T10:59:35.803Z,57.30
2018-07-15T11:00:37.211Z,58.27
2018-07-15T11:01:38.617Z,58.27
2018-07-15T11:02:40.012Z,58.11
2018-07-15T11:03:41.371Z,57.43
2018-07-15T11:04:42.764Z,57.91
2018-07-15T11:05:44.160Z,57.81
2018-07-15T11:06:45.554Z,56.65
2018-07-15T11:07:46.951Z,55.62
2018-07-15T11:08:48.346Z,55.71
2018-07-15T11:09:49.735Z,55.62
2018-07-15T11:10:51.123Z,54.64
2018-07-15T11:11:52.547Z,54.94
2018-07-15T11:12:53.944Z,53.67
2018-07-15T11:13:55.341Z,53.49
2018-07-15T11:14:56.751Z,54.64
2018-07-15T11:15:58.150Z,53.99
2018-07-15T11:16:59.545Z,55.06
2018-07-15T11:18:00.943Z,54.67
2018-07-15T11:19:02.354Z,53.51
2018-07-15T11:20:03.750Z,53.34
2018-07-15T11:21:05.164Z,53.08
2018-07-15T11:22:06.535Z,54.92
2018-07-15T11:23:07.937Z,51.72
2018-07-15T11:24:09.349Z,51.43
2018-07-15T11:25:10.748Z,50.04
2018-07-15T11:26:12.131Z,49.46
2018-07-15T11:27:13.476Z,50.92
2018-07-15T11:28:14.871Z,50.62
2018-07-15T11:29:16.278Z,51.59
2018-07-15T11:30:17.689Z,50.72
2018-07-15T11:31:19.088Z,51.37
2018-07-15T11:32:20.528Z,51.37
2018-07-15T11:33:21.937Z,51.86
2018-07-15T11:34:23.303Z,51.35
2018-07-15T11:35:24.715Z,52.06
2018-07-15T11:36:26.113Z,49.95
2018-07-15T11:37:27.528Z,49.15
2018-07-15T11:38:28.930Z,47.44
2018-07-15T11:39:30.290Z,45.32
2018-07-15T11:40:31.722Z,44.45
2018-07-15T11:41:33.130Z,44.94
2018-07-15T11:42:34.522Z,45.23
2018-07-15T11:43:35.900Z,45.62
2018-07-15T11:44:37.278Z,46.18
2018-07-15T11:45:38.677Z,47.05
2018-07-15T11:46:40.080Z,47.03
2018-07-15T11:47:41.493Z,47.40
2018-07-15T11:48:42.890Z,48.73
2018-07-15T11:49:44.292Z,49.00
2018-07-15T11:50:45.685Z,49.87
2018-07-15T11:51:47.097Z,50.56
2018-07-15T11:52:48.493Z,49.87
2018-07-15T11:53:49.892Z,49.77
2018-07-15T11:54:51.326Z,50.09
2018-07-15T11:55:52.724Z,48.52
2018-07-15T11:56:54.126Z,48.08
2018-07-15T11:57:55.542Z,48.66
2018-07-15T11:58:56.948Z,46.94
2018-07-15T11:59:58.348Z,46.01
2018-07-15T12:00:59.751Z,44.76
2018-07-15T12:02:01.211Z,43.99
2018-07-15T12:03:02.575Z,42.84
2018-07-15T12:04:03.972Z,41.79
2018-07-15T12:05:05.392Z,41.22
2018-07-15T12:06:06.799Z,40.76
2018-07-15T12:07:08.206Z,40.06
2018-07-15T12:08:09.614Z,40.23
2018-07-15T12:09:11.025Z,40.91
2018-07-15T12:10:12.421Z,40.72
2018-07-15T12:11:13.820Z,40.99
2018-07-15T12:12:15.229Z,41.86
2018-07-15T12:13:16.643Z,42.16
2018-07-15T12:14:18.046Z,42.45
2018-07-15T12:15:19.450Z,43.11
2018-07-15T12:16:20.856Z,43.50
2018-07-15T12:17:22.260Z,42.50
2018-07-15T12:18:23.652Z,42.80
2018-07-15T12:19:25.046Z,44.35
2018-07-15T12:20:26.515Z,44.35
2018-07-15T12:21:27.859Z,43.29
2018-07-15T12:22:29.262Z,42.80
2018-07-15T12:23:30.673Z,42.43
2018-07-15T12:24:32.077Z,42.50
2018-07-15T12:25:33.476Z,42.50
2018-07-15T12:26:34.876Z,42.90
2018-07-15T12:27:36.280Z,43.26
2018-07-15T12:28:37.701Z,44.14
2018-07-15T12:29:39.111Z,44.21
2018-07-15T12:30:40.961Z,45.38
2018-07-15T12:31:41.842Z,45.87
2018-07-15T12:32:43.240Z,45.65
2018-07-15T12:33:44.639Z,45.53
2018-07-15T12:34:46.056Z,46.11
2018-07-15T12:35:47.441Z,47.66
2018-07-15T12:36:48.843Z,47.35
2018-07-15T12:37:50.251Z,48.80
2018-07-15T12:38:51.650Z,47.72
2018-07-15T12:39:53.058Z,48.00
2018-07-15T12:40:54.449Z,47.98
2018-07-15T12:41:55.851Z,47.69
2018-07-15T12:42:57.254Z,49.07
2018-07-15T12:43:58.657Z,49.56
2018-07-15T12:45:00.093Z,47.91
2018-07-15T12:46:01.450Z,47.62
2018-07-15T12:47:02.841Z,47.13
2018-07-15T12:48:04.244Z,48.03
2018-07-15T12:49:05.631Z,48.71
2018-07-15T12:50:07.029Z,47.74
2018-07-15T12:51:08.425Z,46.96
2018-07-15T12:52:09.853Z,45.99
2018-07-15T12:53:11.173Z,45.12
2018-07-15T12:54:12.579Z,47.06
2018-07-15T12:55:13.970Z,47.42
2018-07-15T12:56:15.372Z,47.81
2018-07-15T12:57:16.769Z,48.88
2018-07-15T12:58:18.161Z,49.27
2018-07-15T12:59:19.567Z,49.17
2018-07-15T13:00:20.971Z,48.97
2018-07-15T13:01:22.377Z,49.95
2018-07-15T13:02:23.773Z,50.82
2018-07-15T13:03:25.169Z,49.27
2018-07-15T13:04:26.563Z,48.78
2018-07-15T13:05:27.974Z,48.39
2018-07-15T13:06:29.372Z,48.85
2018-07-15T13:07:30.760Z,49.05
2018-07-15T13:08:32.160Z,48.66
2018-07-15T13:09:34.546Z,48.49
2018-07-15T13:10:35.950Z,48.69